Cincinnati, Ohio
Traffic Map
Current Weather Conditions
Cincinnati, Ohio
Clear
Clear
75°
Feels Like: 75°
Wind Chill: 75° Ceiling: Unl
Heat Index: 75° Visibility: 8mi
Dew Point: 74° Wind: 0mph
Humidity: 96% Direction: ° ()
Pressure: 30.01in Gusts: 0mph
Raw Report DataKLUK 270753Z AUTO 00000KT 8SM CLR 24/23 A3001 RMK AO2 SLP157 T02390233
Traffic Incident Summary
Active as of:
Severity:
Category:
InformationThere was an issue retrieving the traffic information for this location. Please try a different location or try again shortly.
Advertisements
Track Severe Weather on mobile